sensor_id;sensor_type;location;lat;lon;timestamp;pressure;altitude;pressure_sealevel;temperature;humidity
9235;BME280;4652;42.716;23.218;2023-05-03T00:00:07;95029.13;;;12.57;56.79
9235;BME280;4652;42.716;23.218;2023-05-03T00:06:51;95037.56;;;12.55;56.34
9235;BME280;4652;42.716;23.218;2023-05-03T00:13:33;95042.81;;;12.47;56.05
9235;BME280;4652;42.716;23.218;2023-05-03T00:20:15;95044.38;;;12.34;55.84
9235;BME280;4652;42.716;23.218;2023-05-03T00:27:00;95070.00;;;12.36;55.69
9235;BME280;4652;42.716;23.218;2023-05-03T00:33:42;95044.75;;;12.27;55.85
9235;BME280;4652;42.716;23.218;2023-05-03T00:40:24;95052.34;;;12.25;56.23
9235;BME280;4652;42.716;23.218;2023-05-03T00:47:07;95043.38;;;12.11;56.65
9235;BME280;4652;42.716;23.218;2023-05-03T00:53:50;95061.13;;;12.17;56.43
9235;BME280;4652;42.716;23.218;2023-05-03T01:08:10;95065.19;;;11.96;56.32
9235;BME280;4652;42.716;23.218;2023-05-03T01:15:08;95036.31;;;11.78;56.00
9235;BME280;4652;42.716;23.218;2023-05-03T01:21:56;95044.91;;;11.80;56.18
9235;BME280;4652;42.716;23.218;2023-05-03T01:28:41;95055.56;;;11.66;56.56
9235;BME280;4652;42.716;23.218;2023-05-03T01:35:29;95044.25;;;11.46;57.07
9235;BME280;4652;42.716;23.218;2023-05-03T01:42:14;95049.84;;;11.49;57.41
9235;BME280;4652;42.716;23.218;2023-05-03T01:48:58;95037.03;;;11.41;57.17
9235;BME280;4652;42.716;23.218;2023-05-03T01:55:40;95034.16;;;11.33;57.51
9235;BME280;4652;42.716;23.218;2023-05-03T02:02:22;95027.28;;;11.21;57.92
9235;BME280;4652;42.716;23.218;2023-05-03T02:09:05;95022.13;;;11.25;57.66
9235;BME280;4652;42.716;23.218;2023-05-03T02:15:48;95014.38;;;11.18;57.78
9235;BME280;4652;42.716;23.218;2023-05-03T02:22:30;95026.16;;;11.04;58.22
9235;BME280;4652;42.716;23.218;2023-05-03T02:29:13;95002.94;;;10.84;58.41
9235;BME280;4652;42.716;23.218;2023-05-03T02:35:55;95031.53;;;11.04;58.35
9235;BME280;4652;42.716;23.218;2023-05-03T02:42:39;95011.19;;;10.93;58.39
9235;BME280;4652;42.716;23.218;2023-05-03T02:49:22;95050.47;;;10.99;58.90
9235;BME280;4652;42.716;23.218;2023-05-03T02:56:04;95031.88;;;10.97;59.16
9235;BME280;4652;42.716;23.218;2023-05-03T03:02:46;95026.03;;;10.90;59.31
9235;BME280;4652;42.716;23.218;2023-05-03T03:09:30;95055.94;;;10.89;59.32
9235;BME280;4652;42.716;23.218;2023-05-03T03:16:12;95017.06;;;10.71;59.14
9235;BME280;4652;42.716;23.218;2023-05-03T03:22:54;95038.41;;;10.91;59.38
9235;BME280;4652;42.716;23.218;2023-05-03T03:29:38;95034.69;;;10.87;59.57
9235;BME280;4652;42.716;23.218;2023-05-03T03:36:20;95048.97;;;10.88;59.76
9235;BME280;4652;42.716;23.218;2023-05-03T03:43:02;95064.13;;;10.79;59.83
9235;BME280;4652;42.716;23.218;2023-05-03T03:49:46;95062.69;;;10.86;60.42
9235;BME280;4652;42.716;23.218;2023-05-03T03:56:27;95057.31;;;10.86;60.23
9235;BME280;4652;42.716;23.218;2023-05-03T04:03:09;95080.47;;;10.87;60.39
9235;BME280;4652;42.716;23.218;2023-05-03T04:09:53;95068.03;;;10.91;60.38
9235;BME280;4652;42.716;23.218;2023-05-03T04:16:36;95048.28;;;10.72;60.37
9235;BME280;4652;42.716;23.218;2023-05-03T04:23:17;95106.63;;;10.87;60.19
9235;BME280;4652;42.716;23.218;2023-05-03T04:30:01;95103.16;;;10.81;60.53
9235;BME280;4652;42.716;23.218;2023-05-03T04:36:43;95118.41;;;10.91;60.84
9235;BME280;4652;42.716;23.218;2023-05-03T04:43:25;95119.63;;;10.75;60.55
9235;BME280;4652;42.716;23.218;2023-05-03T04:50:09;95139.81;;;10.77;61.20
9235;BME280;4652;42.716;23.218;2023-05-03T04:56:53;95152.47;;;10.82;61.24
9235;BME280;4652;42.716;23.218;2023-05-03T05:03:36;95159.22;;;10.79;61.25
9235;BME280;4652;42.716;23.218;2023-05-03T05:10:19;95171.03;;;10.83;61.91
9235;BME280;4652;42.716;23.218;2023-05-03T05:17:01;95178.63;;;10.76;63.06
9235;BME280;4652;42.716;23.218;2023-05-03T05:23:43;95182.13;;;10.77;67.83
9235;BME280;4652;42.716;23.218;2023-05-03T05:30:26;95186.38;;;10.44;80.39
9235;BME280;4652;42.716;23.218;2023-05-03T05:37:08;95182.63;;;10.45;82.93
9235;BME280;4652;42.716;23.218;2023-05-03T05:43:50;95179.91;;;10.45;92.24
9235;BME280;4652;42.716;23.218;2023-05-03T05:50:34;95184.00;;;10.37;89.33
9235;BME280;4652;42.716;23.218;2023-05-03T05:57:16;95180.00;;;10.35;90.61
9235;BME280;4652;42.716;23.218;2023-05-03T06:03:58;95164.16;;;10.28;87.15
9235;BME280;4652;42.716;23.218;2023-05-03T06:10:41;95182.09;;;10.43;90.42
9235;BME280;4652;42.716;23.218;2023-05-03T06:17:24;95178.31;;;10.44;91.23
9235;BME280;4652;42.716;23.218;2023-05-03T06:24:06;95161.16;;;10.35;86.20
9235;BME280;4652;42.716;23.218;2023-05-03T06:30:50;95164.75;;;10.59;90.89
9235;BME280;4652;42.716;23.218;2023-05-03T06:37:31;95161.97;;;10.74;84.47
9235;BME280;4652;42.716;23.218;2023-05-03T06:44:13;95180.31;;;11.01;80.95
9235;BME280;4652;42.716;23.218;2023-05-03T06:50:57;95160.69;;;11.24;76.41
9235;BME280;4652;42.716;23.218;2023-05-03T06:57:40;95131.72;;;11.11;74.48
9235;BME280;4652;42.716;23.218;2023-05-03T07:08:05;95144.13;;;11.36;77.60
9235;BME280;4652;42.716;23.218;2023-05-03T07:14:47;95149.38;;;11.51;73.37
9235;BME280;4652;42.716;23.218;2023-05-03T07:21:29;95145.53;;;11.81;74.04
9235;BME280;4652;42.716;23.218;2023-05-03T07:28:12;95156.28;;;12.04;67.96
9235;BME280;4652;42.716;23.218;2023-05-03T07:34:54;95178.53;;;12.57;68.58
9235;BME280;4652;42.716;23.218;2023-05-03T07:41:36;95146.53;;;12.83;66.16
9235;BME280;4652;42.716;23.218;2023-05-03T07:48:19;95151.38;;;13.32;65.82
9235;BME280;4652;42.716;23.218;2023-05-03T07:55:02;95148.31;;;13.06;68.21
9235;BME280;4652;42.716;23.218;2023-05-03T08:01:44;95149.94;;;13.07;67.59
9235;BME280;4652;42.716;23.218;2023-05-03T08:08:27;95147.81;;;13.36;66.99
9235;BME280;4652;42.716;23.218;2023-05-03T08:15:10;95159.75;;;13.63;66.54
9235;BME280;4652;42.716;23.218;2023-05-03T08:21:52;95143.22;;;13.64;66.49
9235;BME280;4652;42.716;23.218;2023-05-03T08:28:36;95170.63;;;15.11;64.87
9235;BME280;4652;42.716;23.218;2023-05-03T08:35:18;95158.19;;;15.10;62.07
9235;BME280;4652;42.716;23.218;2023-05-03T08:42:05;95144.19;;;14.94;62.36
9235;BME280;4652;42.716;23.218;2023-05-03T08:48:50;95149.34;;;15.79;59.16
9235;BME280;4652;42.716;23.218;2023-05-03T08:55:33;95144.22;;;16.26;59.26
9235;BME280;4652;42.716;23.218;2023-05-03T09:02:15;95142.94;;;16.23;58.65
9235;BME280;4652;42.716;23.218;2023-05-03T09:08:59;95145.78;;;15.70;59.34
9235;BME280;4652;42.716;23.218;2023-05-03T09:15:41;95146.88;;;16.09;61.81
9235;BME280;4652;42.716;23.218;2023-05-03T09:22:27;95134.34;;;16.98;56.89
9235;BME280;4652;42.716;23.218;2023-05-03T09:29:25;95124.16;;;16.70;58.14
9235;BME280;4652;42.716;23.218;2023-05-03T09:36:09;95119.97;;;16.55;57.71
9235;BME280;4652;42.716;23.218;2023-05-03T09:43:04;95101.13;;;15.85;58.44
9235;BME280;4652;42.716;23.218;2023-05-03T09:49:48;95086.00;;;16.27;58.58
9235;BME280;4652;42.716;23.218;2023-05-03T09:56:31;95105.25;;;16.90;58.62
9235;BME280;4652;42.716;23.218;2023-05-03T10:03:21;95070.88;;;16.77;57.88
9235;BME280;4652;42.716;23.218;2023-05-03T10:10:06;95089.88;;;17.03;57.92
9235;BME280;4652;42.716;23.218;2023-05-03T10:16:50;95088.91;;;17.71;56.96
9235;BME280;4652;42.716;23.218;2023-05-03T10:23:33;95076.72;;;17.98;57.78
9235;BME280;4652;42.716;23.218;2023-05-03T10:30:29;95056.63;;;18.61;57.26
9235;BME280;4652;42.716;23.218;2023-05-03T10:37:12;95039.53;;;18.02;55.75
9235;BME280;4652;42.716;23.218;2023-05-03T10:43:55;95044.19;;;17.72;55.77
9235;BME280;4652;42.716;23.218;2023-05-03T10:50:39;95043.16;;;18.76;56.95
9235;BME280;4652;42.716;23.218;2023-05-03T10:57:25;95050.38;;;18.60;54.65
9235;BME280;4652;42.716;23.218;2023-05-03T11:04:09;95060.97;;;18.33;57.54
9235;BME280;4652;42.716;23.218;2023-05-03T11:10:58;95047.50;;;18.07;57.65
9235;BME280;4652;42.716;23.218;2023-05-03T11:17:41;95026.41;;;17.95;58.40
9235;BME280;4652;42.716;23.218;2023-05-03T11:24:23;95021.72;;;18.04;57.16
9235;BME280;4652;42.716;23.218;2023-05-03T11:31:07;95008.00;;;17.92;58.48
9235;BME280;4652;42.716;23.218;2023-05-03T11:37:49;95008.06;;;18.34;57.29
9235;BME280;4652;42.716;23.218;2023-05-03T11:44:31;95006.47;;;18.03;58.66
9235;BME280;4652;42.716;23.218;2023-05-03T11:51:14;95005.09;;;17.97;57.90
9235;BME280;4652;42.716;23.218;2023-05-03T11:58:02;94975.44;;;18.91;58.52
9235;BME280;4652;42.716;23.218;2023-05-03T12:04:43;94982.22;;;18.31;58.21
9235;BME280;4652;42.716;23.218;2023-05-03T12:11:28;94953.25;;;18.27;58.31
9235;BME280;4652;42.716;23.218;2023-05-03T12:18:11;94924.66;;;18.12;59.09
9235;BME280;4652;42.716;23.218;2023-05-03T12:24:53;94952.69;;;18.54;58.84
9235;BME280;4652;42.716;23.218;2023-05-03T12:31:37;94965.44;;;18.08;58.40
9235;BME280;4652;42.716;23.218;2023-05-03T12:38:19;94967.53;;;17.62;60.20
9235;BME280;4652;42.716;23.218;2023-05-03T12:45:01;94964.97;;;16.72;62.88
9235;BME280;4652;42.716;23.218;2023-05-03T12:51:45;94961.66;;;15.98;65.12
9235;BME280;4652;42.716;23.218;2023-05-03T12:58:27;94952.81;;;15.58;68.36
9235;BME280;4652;42.716;23.218;2023-05-03T13:58:33;95001.53;;;13.19;100.00
9235;BME280;4652;42.716;23.218;2023-05-03T14:05:17;94998.56;;;12.75;100.00
9235;BME280;4652;42.716;23.218;2023-05-03T14:11:59;95006.41;;;12.44;100.00
9235;BME280;4652;42.716;23.218;2023-05-03T14:18:45;94999.81;;;11.99;100.00
9235;BME280;4652;42.716;23.218;2023-05-03T14:25:28;95029.00;;;12.16;100.00
9235;BME280;4652;42.716;23.218;2023-05-03T14:32:10;95041.91;;;12.19;100.00
9235;BME280;4652;42.716;23.218;2023-05-03T14:38:54;95016.41;;;12.44;100.00
9235;BME280;4652;42.716;23.218;2023-05-03T14:45:36;95034.63;;;12.52;100.00
9235;BME280;4652;42.716;23.218;2023-05-03T14:52:18;95037.19;;;12.62;100.00
9235;BME280;4652;42.716;23.218;2023-05-03T14:59:01;95049.78;;;12.34;100.00
9235;BME280;4652;42.716;23.218;2023-05-03T15:05:44;95057.16;;;12.10;100.00
9235;BME280;4652;42.716;23.218;2023-05-03T15:12:26;95062.47;;;11.96;100.00
9235;BME280;4652;42.716;23.218;2023-05-03T15:19:10;95043.66;;;11.72;100.00
9235;BME280;4652;42.716;23.218;2023-05-03T15:25:52;95033.44;;;11.69;100.00
9235;BME280;4652;42.716;23.218;2023-05-03T15:32:34;95010.03;;;11.65;100.00
9235;BME280;4652;42.716;23.218;2023-05-03T15:39:17;95017.53;;;11.68;100.00
9235;BME280;4652;42.716;23.218;2023-05-03T15:45:59;95024.03;;;11.67;100.00
9235;BME280;4652;42.716;23.218;2023-05-03T15:52:41;95014.03;;;11.67;100.00
9235;BME280;4652;42.716;23.218;2023-05-03T15:59:27;95000.75;;;11.52;100.00
9235;BME280;4652;42.716;23.218;2023-05-03T16:06:09;94997.25;;;11.52;100.00
9235;BME280;4652;42.716;23.218;2023-05-03T16:12:50;95021.41;;;11.62;100.00
9235;BME280;4652;42.716;23.218;2023-05-03T16:19:34;95026.88;;;11.57;100.00
9235;BME280;4652;42.716;23.218;2023-05-03T16:26:16;95021.59;;;11.65;100.00
9235;BME280;4652;42.716;23.218;2023-05-03T16:32:58;95011.09;;;11.64;100.00
9235;BME280;4652;42.716;23.218;2023-05-03T16:39:43;95033.25;;;11.61;100.00
9235;BME280;4652;42.716;23.218;2023-05-03T16:46:25;95017.38;;;11.59;100.00
9235;BME280;4652;42.716;23.218;2023-05-03T16:53:07;95020.84;;;11.60;100.00
9235;BME280;4652;42.716;23.218;2023-05-03T16:59:50;95024.28;;;11.47;100.00
9235;BME280;4652;42.716;23.218;2023-05-03T17:06:31;95019.63;;;11.52;100.00
9235;BME280;4652;42.716;23.218;2023-05-03T17:13:13;95053.38;;;11.50;100.00
9235;BME280;4652;42.716;23.218;2023-05-03T17:19:58;95028.28;;;11.49;100.00
9235;BME280;4652;42.716;23.218;2023-05-03T17:26:40;95036.19;;;11.46;100.00
9235;BME280;4652;42.716;23.218;2023-05-03T17:33:22;95044.84;;;11.43;100.00
9235;BME280;4652;42.716;23.218;2023-05-03T17:40:07;95041.84;;;11.44;100.00
9235;BME280;4652;42.716;23.218;2023-05-03T17:46:49;95032.25;;;11.57;100.00
9235;BME280;4652;42.716;23.218;2023-05-03T17:53:33;95054.84;;;11.61;100.00
9235;BME280;4652;42.716;23.218;2023-05-03T18:00:17;95055.41;;;11.58;100.00
9235;BME280;4652;42.716;23.218;2023-05-03T18:07:00;95054.56;;;11.39;100.00
9235;BME280;4652;42.716;23.218;2023-05-03T20:37:30;95086.19;;;10.81;100.00
9235;BME280;4652;42.716;23.218;2023-05-03T20:44:12;95091.94;;;10.74;100.00
9235;BME280;4652;42.716;23.218;2023-05-03T20:50:54;95083.41;;;10.62;100.00
9235;BME280;4652;42.716;23.218;2023-05-03T20:57:42;95066.94;;;10.35;100.00
9235;BME280;4652;42.716;23.218;2023-05-03T21:04:24;95062.22;;;10.12;100.00
9235;BME280;4652;42.716;23.218;2023-05-03T21:11:06;95085.41;;;10.13;100.00
9235;BME280;4652;42.716;23.218;2023-05-03T21:17:50;95087.09;;;9.93;100.00
9235;BME280;4652;42.716;23.218;2023-05-03T21:24:32;95076.94;;;9.80;100.00
9235;BME280;4652;42.716;23.218;2023-05-03T21:31:14;95063.75;;;9.35;100.00
9235;BME280;4652;42.716;23.218;2023-05-03T21:37:57;95068.03;;;9.36;100.00
9235;BME280;4652;42.716;23.218;2023-05-03T21:44:40;95060.31;;;9.19;100.00
9235;BME280;4652;42.716;23.218;2023-05-03T21:51:22;95071.63;;;9.01;100.00
9235;BME280;4652;42.716;23.218;2023-05-03T21:58:06;95086.97;;;9.06;100.00
9235;BME280;4652;42.716;23.218;2023-05-03T22:04:48;95073.25;;;8.92;100.00
9235;BME280;4652;42.716;23.218;2023-05-03T22:11:30;95077.28;;;9.00;100.00
9235;BME280;4652;42.716;23.218;2023-05-03T22:18:14;95075.94;;;9.02;100.00
9235;BME280;4652;42.716;23.218;2023-05-03T22:24:58;95064.13;;;8.98;100.00
9235;BME280;4652;42.716;23.218;2023-05-03T22:31:40;95050.16;;;8.96;100.00
9235;BME280;4652;42.716;23.218;2023-05-03T22:38:24;95040.75;;;9.04;100.00
9235;BME280;4652;42.716;23.218;2023-05-03T22:45:07;95039.44;;;8.96;100.00
9235;BME280;4652;42.716;23.218;2023-05-03T22:51:49;95042.41;;;8.95;100.00
9235;BME280;4652;42.716;23.218;2023-05-03T22:58:33;95024.88;;;9.12;100.00
9235;BME280;4652;42.716;23.218;2023-05-03T23:05:15;95017.63;;;9.08;100.00
9235;BME280;4652;42.716;23.218;2023-05-03T23:11:57;95010.63;;;9.12;100.00
9235;BME280;4652;42.716;23.218;2023-05-03T23:18:41;95008.47;;;9.09;100.00
9235;BME280;4652;42.716;23.218;2023-05-03T23:25:23;94997.31;;;8.81;100.00
9235;BME280;4652;42.716;23.218;2023-05-03T23:32:05;94998.28;;;9.11;100.00
9235;BME280;4652;42.716;23.218;2023-05-03T23:38:49;94988.09;;;9.08;100.00
9235;BME280;4652;42.716;23.218;2023-05-03T23:45:31;95005.81;;;9.14;100.00
9235;BME280;4652;42.716;23.218;2023-05-03T23:52:13;94999.31;;;9.25;100.00
9235;BME280;4652;42.716;23.218;2023-05-03T23:58:59;94997.13;;;9.27;100.00
